Briefing drone pour Bas-en-basset

Rechercher une autre localisation

Conditions de vol :


Nous sommes le : Samedi 20 août 2022
Il est 05:23 UTC (07:23 LT)

Lever de soleil : 04:24 UTC (06:24 LT)
Coucher de soleil : 19:09 UTC (21:09 LT)

Météo

L'essentiel des conditions de vol

VIGILANCE MÉTÉO FRANCE - Haute-Loire (43)
Pas de vigilances particulieres
CARTE TEMSI
CARTES DES FRONTS
METAR de LFMH
LFMH 200500Z AUTO 00000KT 9999 BKN015 OVC027 17/16 Q1020

Date d'émission: 20/08/2022
Heure d'émission: 05:00 UTC
Vent: Calme
Visibilité horizontale: > 10 km
Plafond :
- Nuages morcelés à 1500ft (457m)
- Couvert à 2700ft (823m)
Température: 17 °C
Point de rosée: 16 °C
Humidité: 94%
Pression (QNH): 1020 hPa
TAF de LFMH
LFMH 161901Z 1619/1712 CNL

Conditions prévues :

Heure d'émission : Bulletin éffectué le 16 à 19:00 UTC
Prévision : Valide du 16 a 19:00 UTC au 17 a 12:00 UTC
Nuages : à 0ft (0 m)
WEBCAM POUR BAS-EN-BASSET

Réglementation

Voler en sécurité

CARTES AERONAUTIQUE 1/500.000
CARTE AZBA (Reseau basse altitude)
CARTES VAC (LFMH)
SUP AIP




Chargement des AIP...
NOTAM (BAS-EN-BASSET + Terrain à proximité / FIR )




Chargement des NOTAMS...
CONTACT PREFECTURE 43


Avertissement : Les données mises à disposition sont indicatives. Oxygène Drone ne pourra être tenu responsable de dégâts causés aux biens et aux personnes.